Grey Lady — WDC9414 — position and weather

sailwx.info

Track history (hours):
 
Tides and Currents Weather Stations Pressure Air Temp Water Temp Dewpoint Dewpoint Depression Visibility Wind Speed Wind Dir Waves Ship Positions

Grey Lady

Owner: HYANNIS HARBOR TOURS INC, HYANNIS, MA. More information available from US FCC via Universal Licensing System and Coast Guard Vessel Documentation Center.

Last reported at 2017-Sep-23 23:54 UTC. Time now 2017-Sep-24 05:14 UTC.
Position N 41°38' W 070°16'.

Length 44 m; draft 2 m.

Type: High speed craft. MMSI: 367101920.

Date/timePositionNaut miles runAvg speedWind from/ knotsBaromVisibWave heightAir tempDewpointWater temp
2017-Sep-23 23:54N 41°38' W 070°16'  
2017-Sep-20 13:19N 41°39' W 070°17'0 1.0
2017-Sep-20 13:00N 41°39' W 070°16'7 2.8
2017-Sep-20 10:38N 41°32' W 070°15'431.2
2017-Sep-20 10:30N 41°36' W 070°17'3 6.1
2017-Sep-20 10:01N 41°39' W 070°17'0 0.0
2017-Sep-20 09:30N 41°39' W 070°17'0 0.0
2017-Sep-20 00:05N 41°39' W 070°17'0 2.0
2017-Sep-20 00:00N 41°39' W 070°17'5 2.4
2017-Sep-19 22:01N 41°34' W 070°16'032.2
2017-Sep-19 22:00N 41°34' W 070°16'5 9.3
2017-Sep-19 21:30N 41°39' W 070°17'1 1.5
2017-Sep-19 21:00N 41°38' W 070°16'7 3.1
2017-Sep-19 18:51N 41°32' W 070°16'720.7
2017-Sep-19 18:30N 41°39' W 070°16'0 0.6
2017-Sep-19 18:00N 41°39' W 070°17'8 3.8
2017-Sep-19 15:48N 41°31' W 070°15'825.1
2017-Sep-19 15:30N 41°38' W 070°16'1 1.6
2017-Sep-19 15:00N 41°39' W 070°17'0 0.0
2017-Sep-19 00:04N 41°39' W 070°17'0 2.3
2017-Sep-19 00:00N 41°39' W 070°17'6 3.3
2017-Sep-18 22:04N 41°33' W 070°16'231.4
2017-Sep-18 22:01N 41°34' W 070°17'5 9.0
2017-Sep-18 21:29N 41°39' W 070°17'1 2.1
2017-Sep-18 21:01N 41°38' W 070°16'7 3.2
2017-Sep-18 18:51N 41°31' W 070°15'821.9
2017-Sep-18 18:30N 41°39' W 070°16'0 0.7
2017-Sep-18 17:59N 41°39' W 070°17'8 3.9
2017-Sep-18 15:49N 41°31' W 070°15'824.5
2017-Sep-18 15:30N 41°38' W 070°16'1 1.5
2017-Sep-18 15:00N 41°39' W 070°17'0 0.0
2017-Sep-18 14:30N 41°39' W 070°17'0 0.0
2017-Sep-18 14:00N 41°39' W 070°17'0 0.0
2017-Sep-18 00:11N 41°39' W 070°17'1 3.6
2017-Sep-18 00:00N 41°38' W 070°16'6 3.3
2017-Sep-17 22:07N 41°32' W 070°16'431.1
2017-Sep-17 22:00N 41°36' W 070°17'3 6.5
2017-Sep-17 21:30N 41°39' W 070°17'1 2.2
2017-Sep-17 21:00N 41°38' W 070°16'6 2.9
2017-Sep-17 18:54N 41°32' W 070°15'718.2
2017-Sep-17 18:30N 41°39' W 070°17'0 0.3
2017-Sep-17 18:00N 41°39' W 070°17'9 4.1
2017-Sep-17 15:53N 41°30' W 070°16'821.4
2017-Sep-17 15:30N 41°39' W 070°16'0 0.9
2017-Sep-17 15:00N 41°39' W 070°17'7 3.5
2017-Sep-17 12:58N 41°32' W 070°15'715.6
2017-Sep-17 12:30N 41°39' W 070°17'0 0.0
2017-Sep-17 12:01N 41°39' W 070°17'0 0.0
2017-Sep-16 00:08N 41°39' W 070°17'0 1.2
2017-Sep-16 00:00N 41°39' W 070°17'8 4.1
2017-Sep-15 22:09N 41°31' W 070°15'429.8
2017-Sep-15 22:01N 41°35' W 070°17'4 7.2
2017-Sep-15 21:30N 41°39' W 070°17'1 2.1
2017-Sep-15 21:01N 41°38' W 070°16'4 1.9
2017-Sep-15 18:51N 41°34' W 070°16'515.7
2017-Sep-15 18:30N 41°39' W 070°17'0 0.3
2017-Sep-15 18:00N 41°39' W 070°17'7 3.2
2017-Sep-15 15:46N 41°32' W 070°15'622.9
2017-Sep-15 15:30N 41°38' W 070°16'1 1.7
2017-Sep-15 15:00N 41°39' W 070°17'0 0.0
2017-Sep-15 14:30N 41°39' W 070°17'0 0.0
2017-Sep-15 14:00N 41°39' W 070°17'0 0.0
2017-Sep-15 00:05N 41°39' W 070°17'0 1.8
2017-Sep-15 00:00N 41°39' W 070°17'7 3.7
2017-Sep-14 22:04N 41°32' W 070°15'230.2
2017-Sep-14 22:00N 41°34' W 070°16'510.5
2017-Sep-14 21:30N 41°39' W 070°17'2 3.1
2017-Sep-14 21:01N 41°37' W 070°17'5 2.2
2017-Sep-14 18:52N 41°33' W 070°16'617.4
2017-Sep-14 18:31N 41°39' W 070°17'0 0.3
2017-Sep-14 18:00N 41°39' W 070°17'6 2.8
2017-Sep-14 15:46N 41°33' W 070°16'621.7
2017-Sep-14 15:30N 41°38' W 070°16'1 1.4
2017-Sep-14 15:00N 41°39' W 070°17'0 0.0
2017-Sep-14 14:30N 41°39' W 070°17'0 0.0
2017-Sep-14 14:00N 41°39' W 070°17'0 0.0
2017-Sep-14 13:30N 41°39' W 070°17'1 1.5
2017-Sep-14 13:00N 41°38' W 070°16'1 1.5
2017-Sep-14 12:30N 41°39' W 070°17'  
Track history (hours):
 
Tides and Currents Weather Stations Pressure Air Temp Water Temp Dewpoint Dewpoint Depression Visibility Wind Speed Wind Dir Waves Ship Positions

Grey Lady

Owner: HYANNIS HARBOR TOURS INC, HYANNIS, MA. More information available from US FCC via Universal Licensing System and Coast Guard Vessel Documentation Center.

Last reported at 2017-Sep-23 23:54 UTC. Time now 2017-Sep-24 05:14 UTC.
Position N 41°38' W 070°16'.

Length 44 m; draft 2 m.

Type: High speed craft. MMSI: 367101920.

Date/timePositionNaut miles runAvg speedWind from/ knotsBaromVisibWave heightAir tempDewpointWater temp
2017-Sep-23 23:54N 41°38' W 070°16'  
2017-Sep-20 13:19N 41°39' W 070°17'0 1.0
2017-Sep-20 13:00N 41°39' W 070°16'7 2.8
2017-Sep-20 10:38N 41°32' W 070°15'431.2
2017-Sep-20 10:30N 41°36' W 070°17'3 6.1
2017-Sep-20 10:01N 41°39' W 070°17'0 0.0
2017-Sep-20 09:30N 41°39' W 070°17'0 0.0
2017-Sep-20 00:05N 41°39' W 070°17'0 2.0
2017-Sep-20 00:00N 41°39' W 070°17'5 2.4
2017-Sep-19 22:01N 41°34' W 070°16'032.2
2017-Sep-19 22:00N 41°34' W 070°16'5 9.3
2017-Sep-19 21:30N 41°39' W 070°17'1 1.5
2017-Sep-19 21:00N 41°38' W 070°16'7 3.1
2017-Sep-19 18:51N 41°32' W 070°16'720.7
2017-Sep-19 18:30N 41°39' W 070°16'0 0.6
2017-Sep-19 18:00N 41°39' W 070°17'8 3.8
2017-Sep-19 15:48N 41°31' W 070°15'825.1
2017-Sep-19 15:30N 41°38' W 070°16'1 1.6
2017-Sep-19 15:00N 41°39' W 070°17'0 0.0
2017-Sep-19 00:04N 41°39' W 070°17'0 2.3
2017-Sep-19 00:00N 41°39' W 070°17'6 3.3
2017-Sep-18 22:04N 41°33' W 070°16'231.4
2017-Sep-18 22:01N 41°34' W 070°17'5 9.0
2017-Sep-18 21:29N 41°39' W 070°17'1 2.1
2017-Sep-18 21:01N 41°38' W 070°16'7 3.2
2017-Sep-18 18:51N 41°31' W 070°15'821.9
2017-Sep-18 18:30N 41°39' W 070°16'0 0.7
2017-Sep-18 17:59N 41°39' W 070°17'8 3.9
2017-Sep-18 15:49N 41°31' W 070°15'824.5
2017-Sep-18 15:30N 41°38' W 070°16'1 1.5
2017-Sep-18 15:00N 41°39' W 070°17'0 0.0
2017-Sep-18 14:30N 41°39' W 070°17'0 0.0
2017-Sep-18 14:00N 41°39' W 070°17'0 0.0
2017-Sep-18 00:11N 41°39' W 070°17'1 3.6
2017-Sep-18 00:00N 41°38' W 070°16'6 3.3
2017-Sep-17 22:07N 41°32' W 070°16'431.1
2017-Sep-17 22:00N 41°36' W 070°17'3 6.5
2017-Sep-17 21:30N 41°39' W 070°17'1 2.2
2017-Sep-17 21:00N 41°38' W 070°16'6 2.9
2017-Sep-17 18:54N 41°32' W 070°15'718.2
2017-Sep-17 18:30N 41°39' W 070°17'0 0.3
2017-Sep-17 18:00N 41°39' W 070°17'9 4.1
2017-Sep-17 15:53N 41°30' W 070°16'821.4
2017-Sep-17 15:30N 41°39' W 070°16'0 0.9
2017-Sep-17 15:00N 41°39' W 070°17'7 3.5
2017-Sep-17 12:58N 41°32' W 070°15'715.6
2017-Sep-17 12:30N 41°39' W 070°17'0 0.0
2017-Sep-17 12:01N 41°39' W 070°17'0 0.0
2017-Sep-16 00:08N 41°39' W 070°17'0 1.2
2017-Sep-16 00:00N 41°39' W 070°17'8 4.1
2017-Sep-15 22:09N 41°31' W 070°15'429.8
2017-Sep-15 22:01N 41°35' W 070°17'4 7.2
2017-Sep-15 21:30N 41°39' W 070°17'1 2.1
2017-Sep-15 21:01N 41°38' W 070°16'4 1.9
2017-Sep-15 18:51N 41°34' W 070°16'515.7
2017-Sep-15 18:30N 41°39' W 070°17'0 0.3
2017-Sep-15 18:00N 41°39' W 070°17'7 3.2
2017-Sep-15 15:46N 41°32' W 070°15'622.9
2017-Sep-15 15:30N 41°38' W 070°16'1 1.7
2017-Sep-15 15:00N 41°39' W 070°17'0 0.0
2017-Sep-15 14:30N 41°39' W 070°17'0 0.0
2017-Sep-15 14:00N 41°39' W 070°17'0 0.0
2017-Sep-15 00:05N 41°39' W 070°17'0 1.8
2017-Sep-15 00:00N 41°39' W 070°17'7 3.7
2017-Sep-14 22:04N 41°32' W 070°15'230.2
2017-Sep-14 22:00N 41°34' W 070°16'510.5
2017-Sep-14 21:30N 41°39' W 070°17'2 3.1
2017-Sep-14 21:01N 41°37' W 070°17'5 2.2
2017-Sep-14 18:52N 41°33' W 070°16'617.4
2017-Sep-14 18:31N 41°39' W 070°17'0 0.3
2017-Sep-14 18:00N 41°39' W 070°17'6 2.8
2017-Sep-14 15:46N 41°33' W 070°16'621.7
2017-Sep-14 15:30N 41°38' W 070°16'1 1.4
2017-Sep-14 15:00N 41°39' W 070°17'0 0.0
2017-Sep-14 14:30N 41°39' W 070°17'0 0.0
2017-Sep-14 14:00N 41°39' W 070°17'0 0.0
2017-Sep-14 13:30N 41°39' W 070°17'1 1.5
2017-Sep-14 13:00N 41°38' W 070°16'1 1.5
2017-Sep-14 12:30N 41°39' W 070°17'  

Dump ship's entire track history